Time;durP1;ratioP1;P1;durP2;ratioP2;P2;SDS_P1;SDS_P2;PMS_P1;PMS_P2;Temp;Humidity;BMP_temperature;BMP_pressure;BME280_temperature;BME280_humidity;BME280_pressure;Samples;Min_cycle;Max_cycle;Signal;HPM_P1;HPM_P2
2024/03/15 00:01:59;;;;;;;55.60;41.13;;;;;;;;;;5090977;28;20059;-69
2024/03/15 00:05:04;;;;;;;57.25;41.78;;;;;;;;;;5090817;28;20502;-68
2024/03/15 00:08:10;;;;;;;57.50;42.03;;;;;;;;;;5090718;28;20047;-68
2024/03/15 00:11:14;;;;;;;61.85;42.50;;;;;;;;;;5090806;28;20411;-68
2024/03/15 00:14:18;;;;;;;62.67;43.33;;;;;;;;;;5090656;28;20062;-69
2024/03/15 00:17:23;;;;;;;56.95;42.28;;;;;;;;;;5090250;28;20043;-68
2024/03/15 00:20:27;;;;;;;61.22;44.25;;;;;;;;;;5090335;28;20051;-69
2024/03/15 00:23:32;;;;;;;62.25;44.40;;;;;;;;;;5089468;28;20573;-69
2024/03/15 00:26:36;;;;;;;69.60;46.05;;;;;;;;;;5090086;28;20118;-69
2024/03/15 00:29:40;;;;;;;64.63;44.60;;;;;;;;;;5090093;28;20039;-69
2024/03/15 00:32:44;;;;;;;68.47;45.05;;;;;;;;;;5090217;28;20506;-70
2024/03/15 00:35:49;;;;;;;58.22;44.38;;;;;;;;;;5089526;28;20059;-69
2024/03/15 00:38:53;;;;;;;64.35;45.05;;;;;;;;;;5090473;28;20043;-69
2024/03/15 00:41:58;;;;;;;65.75;46.33;;;;;;;;;;5094024;28;20047;-69
2024/03/15 00:45:02;;;;;;;65.55;44.60;;;;;;;;;;5093853;28;20055;-69
2024/03/15 00:48:08;;;;;;;63.35;45.10;;;;;;;;;;5093813;28;20047;-69
2024/03/15 00:51:13;;;;;;;64.10;45.03;;;;;;;;;;5093164;28;20051;-69
2024/03/15 00:54:17;;;;;;;62.22;45.25;;;;;;;;;;5093864;28;20047;-69
2024/03/15 00:57:21;;;;;;;61.05;44.58;;;;;;;;;;5093764;28;20043;-69
2024/03/15 01:00:26;;;;;;;63.45;46.15;;;;;;;;;;5093430;28;20042;-69
2024/03/15 01:03:30;;;;;;;72.22;45.25;;;;;;;;;;5092576;28;20039;-69
2024/03/15 01:06:34;;;;;;;68.00;48.30;;;;;;;;;;5093745;28;20035;-69
2024/03/15 01:09:38;;;;;;;70.18;50.03;;;13.20;99.90;;;;;;5092754;28;20043;-69
2024/03/15 01:12:42;;;;;;;67.43;49.10;;;13.50;99.90;;;;;;5093348;28;20046;-69
2024/03/15 01:15:46;;;;;;;63.00;45.65;;;13.30;99.90;;;;;;5092572;28;20047;-69
2024/03/15 01:18:50;;;;;;;66.10;47.92;;;13.70;99.90;;;;;;5093259;28;20416;-68
2024/03/15 01:21:54;;;;;;;61.65;45.15;;;13.40;99.90;;;;;;5093349;28;20062;-69
2024/03/15 01:25:01;;;;;;;71.60;48.45;;;13.30;99.90;;;;;;5093125;28;20074;-69
2024/03/15 01:28:06;;;;;;;70.25;48.03;;;12.80;99.90;;;;;;5093137;28;20039;-68
2024/03/15 01:31:11;;;;;;;64.80;48.13;;;13.40;99.90;;;;;;5092282;28;20043;-68
2024/03/15 01:34:16;;;;;;;68.03;48.60;;;13.30;99.90;;;;;;5092942;28;20058;-69
2024/03/15 01:37:19;;;;;;;70.10;48.13;;;13.30;99.90;;;;;;5093062;28;20039;-69
2024/03/15 01:40:26;;;;;;;66.82;47.78;;;13.20;99.90;;;;;;5092903;28;20399;-69
2024/03/15 01:43:30;;;;;;;69.72;48.00;;;13.30;99.90;;;;;;5092852;28;20043;-68
2024/03/15 01:46:35;;;;;;;66.28;47.67;;;13.30;99.90;;;;;;5092910;28;20063;-68
2024/03/15 01:49:41;;;;;;;68.90;47.33;;;13.30;99.90;;;;;;5091700;28;20055;-69
2024/03/15 01:52:45;;;;;;;65.32;46.38;;;;;;;;;;5091392;28;20046;-69
2024/03/15 01:55:49;;;;;;;64.68;45.92;;;;;;;;;;5092601;28;20048;-69
2024/03/15 01:58:54;;;;;;;64.40;43.38;;;;;;;;;;5091668;28;20385;-68
2024/03/15 02:02:05;;;;;;;59.72;42.90;;;11.90;99.90;;;;;;5092231;28;20400;-68
2024/03/15 02:05:14;;;;;;;61.22;42.38;;;;;;;;;;5092349;28;20047;-69
2024/03/15 02:08:19;;;;;;;60.40;44.13;;;;;;;;;;5092098;28;20039;-68
2024/03/15 02:11:23;;;;;;;56.55;42.10;;;;;;;;;;5091991;28;20423;-69
2024/03/15 02:14:27;;;;;;;59.08;40.40;;;9.70;99.90;;;;;;5091253;28;20047;-68
2024/03/15 02:17:34;;;;;;;59.47;41.25;;;11.90;99.90;;;;;;5091411;28;20062;-68
2024/03/15 02:20:38;;;;;;;58.75;41.53;;;12.60;99.90;;;;;;5091029;28;20051;-69
2024/03/15 02:23:42;;;;;;;60.88;42.55;;;;;;;;;;5091729;28;20043;-69
2024/03/15 02:26:47;;;;;;;59.53;40.35;;;13.10;99.90;;;;;;5091788;28;20051;-69
2024/03/15 02:29:52;;;;;;;57.70;40.70;;;13.10;99.90;;;;;;5091987;28;20039;-68
2024/03/15 02:32:56;;;;;;;54.83;38.53;;;;;;;;;;5091634;28;20047;-69
2024/03/15 02:36:01;;;;;;;52.67;35.42;;;;;;;;;;5091879;28;20063;-69
2024/03/15 02:39:08;;;;;;;50.90;36.50;;;;;;;;;;5091819;28;20063;-69
2024/03/15 02:42:12;;;;;;;46.03;35.58;;;;;;;;;;5091836;28;20063;-69
2024/03/15 02:45:16;;;;;;;47.60;33.38;;;12.30;99.90;;;;;;5091525;28;20039;-69
2024/03/15 02:48:21;;;;;;;51.28;33.63;;;;;;;;;;5090827;28;20047;-68
2024/03/15 02:51:26;;;;;;;42.28;27.65;;;;;;;;;;5090496;28;20047;-68
2024/03/15 02:54:30;;;;;;;51.83;32.85;;;;;;;;;;5091314;28;20418;-69
2024/03/15 02:57:34;;;;;;;38.55;29.38;;;;;;;;;;5091557;28;20062;-68
2024/03/15 03:00:39;;;;;;;38.08;24.88;;;;;;;;;;5091490;28;20047;-68
2024/03/15 03:03:42;;;;;;;41.45;24.95;;;11.70;99.90;;;;;;5091046;28;20035;-68
2024/03/15 03:06:47;;;;;;;38.15;27.58;;;13.10;99.90;;;;;;5091523;28;20043;-68
2024/03/15 03:09:51;;;;;;;35.95;24.52;;;13.10;99.90;;;;;;5091541;28;20506;-69
2024/03/15 03:12:56;;;;;;;33.65;21.02;;;12.70;99.90;;;;;;5091269;28;20051;-68
2024/03/15 03:16:00;;;;;;;35.78;23.48;;;11.10;99.90;;;;;;5091306;28;20043;-69
2024/03/15 03:19:05;;;;;;;38.28;24.55;;;12.90;99.90;;;;;;5090560;28;20039;-69
2024/03/15 03:22:09;;;;;;;30.83;22.67;;;12.80;99.90;;;;;;5091058;28;20506;-68
2024/03/15 03:25:15;;;;;;;34.70;19.65;;;;;;;;;;5091075;28;20038;-68
2024/03/15 03:28:20;;;;;;;28.73;19.75;;;;;;;;;;5090865;28;20395;-69
2024/03/15 03:31:24;;;;;;;30.00;20.98;;;;;;;;;;5090869;28;20402;-68
2024/03/15 03:34:28;;;;;;;32.13;21.85;;;;;;;;;;5090961;28;20043;-68
2024/03/15 03:37:33;;;;;;;30.67;19.80;;;12.90;99.90;;;;;;5090686;28;20478;-69
2024/03/15 03:40:37;;;;;;;28.33;17.33;;;12.90;99.90;;;;;;5090773;28;20051;-69
2024/03/15 03:43:43;;;;;;;29.13;18.02;;;12.70;99.90;;;;;;5090749;28;20043;-68
2024/03/15 03:46:47;;;;;;;24.20;15.80;;;12.90;99.90;;;;;;5091286;28;20063;-69
2024/03/15 03:49:51;;;;;;;25.90;15.20;;;11.90;99.90;;;;;;5090591;28;20430;-69
2024/03/15 03:52:56;;;;;;;26.95;15.20;;;13.00;99.90;;;;;;5089962;28;20035;-69
2024/03/15 03:56:00;;;;;;;22.92;11.32;;;12.90;99.90;;;;;;5090947;28;20047;-69
2024/03/15 03:59:04;;;;;;;23.33;9.90;;;12.90;99.90;;;;;;5089962;28;20475;-69
2024/03/15 04:02:08;;;;;;;21.48;8.23;;;12.90;99.90;;;;;;5090592;28;20407;-69
2024/03/15 04:05:18;;;;;;;25.38;9.40;;;12.80;99.90;;;;;;5090557;28;20043;-68
2024/03/15 04:08:24;;;;;;;27.35;9.43;;;12.80;99.90;;;;;;5090775;28;20080;-68
2024/03/15 04:11:28;;;;;;;18.35;8.60;;;12.70;99.90;;;;;;5089781;28;20502;-68
2024/03/15 04:14:33;;;;;;;18.75;7.25;;;12.70;99.90;;;;;;5090817;28;20514;-68
2024/03/15 04:17:39;;;;;;;24.25;8.55;;;12.70;99.90;;;;;;5094298;28;20047;-68
2024/03/15 04:20:46;;;;;;;13.27;6.03;;;12.80;99.90;;;;;;5093585;28;20047;-69
2024/03/15 04:23:56;;;;;;;17.63;7.55;;;12.80;99.90;;;;;;5093593;28;20039;-68
2024/03/15 04:27:00;;;;;;;21.90;7.28;;;12.90;99.90;;;;;;5093338;28;20051;-68
2024/03/15 04:30:14;;;;;;;16.38;5.57;;;12.90;99.90;;;;;;5094575;28;20059;-68
2024/03/15 04:33:20;;;;;;;19.35;6.20;;;12.90;99.90;;;;;;5094221;28;20146;-68
2024/03/15 04:36:24;;;;;;;20.23;7.90;;;13.00;99.90;;;;;;5093283;28;20101;-68
2024/03/15 04:39:29;;;;;;;23.77;6.28;;;;;;;;;;5093998;28;20047;-68
2024/03/15 04:42:34;;;;;;;13.80;4.68;;;;;;;;;;5093902;28;20043;-68
2024/03/15 04:45:39;;;;;;;22.77;5.78;;;;;;;;;;5093276;28;20138;-68
2024/03/15 04:48:43;;;;;;;18.55;5.15;;;12.80;99.90;;;;;;5094063;28;20047;-68
2024/03/15 04:51:48;;;;;;;19.30;7.47;;;;;;;;;;5094035;28;20376;-68
2024/03/15 04:54:52;;;;;;;22.05;8.30;;;;;;;;;;5093956;28;20036;-68
2024/03/15 04:57:56;;;;;;;17.20;6.25;;;;;;;;;;5093716;28;20032;-68
2024/03/15 05:01:01;;;;;;;18.70;7.28;;;;;;;;;;5093650;28;20063;-68
2024/03/15 05:04:05;;;;;;;30.30;7.28;;;11.30;99.90;;;;;;5093798;28;20043;-68
2024/03/15 05:07:10;;;;;;;28.48;7.32;;;11.60;99.90;;;;;;5093785;28;20055;-68
2024/03/15 05:10:14;;;;;;;19.90;5.40;;;;;;;;;;5093558;28;20039;-68
2024/03/15 05:13:19;;;;;;;13.23;4.88;;;12.80;99.90;;;;;;5092595;28;20036;-68
2024/03/15 05:16:23;;;;;;;18.92;4.80;;;10.90;99.90;;;;;;5093562;28;20046;-68
2024/03/15 05:19:27;;;;;;;16.95;4.75;;;12.80;99.90;;;;;;5093352;28;20538;-68
2024/03/15 05:22:31;;;;;;;14.60;5.20;;;12.90;99.90;;;;;;5093366;28;20058;-69
2024/03/15 05:25:36;;;;;;;17.30;4.93;;;12.40;99.90;;;;;;5092677;28;20392;-68
2024/03/15 05:28:42;;;;;;;19.08;6.18;;;12.80;99.90;;;;;;5093230;28;20047;-68
2024/03/15 05:31:46;;;;;;;18.60;5.00;;;12.60;99.90;;;;;;5092891;28;20035;-68
2024/03/15 05:34:50;;;;;;;16.48;4.70;;;12.70;99.90;;;;;;5091991;28;20043;-68
2024/03/15 05:37:54;;;;;;;13.88;4.82;;;12.70;99.90;;;;;;5092129;28;20434;-67
2024/03/15 05:40:59;;;;;;;21.48;5.72;;;12.70;99.90;;;;;;5092892;28;20055;-68
2024/03/15 05:44:04;;;;;;;21.45;5.22;;;12.70;99.90;;;;;;5092617;28;20035;-67
2024/03/15 05:47:09;;;;;;;18.98;4.30;;;11.10;99.90;;;;;;5092680;28;20051;-67
2024/03/15 05:50:13;;;;;;;14.63;4.55;;;;;;;;;;5092467;28;20062;-67
2024/03/15 05:53:17;;;;;;;26.52;5.35;;;;;;;;;;5092488;28;20045;-68
2024/03/15 05:56:23;;;;;;;23.95;4.63;;;13.40;99.90;;;;;;5092244;28;20036;-68
2024/03/15 05:59:27;;;;;;;10.38;4.50;;;;;;;;;;5091714;28;20047;-68
2024/03/15 06:02:32;;;;;;;19.23;5.30;;;;;;;;;;5092352;28;20036;-67
2024/03/15 06:05:37;;;;;;;20.55;5.03;;;;;;;;;;5092255;28;20106;-68
2024/03/15 06:08:42;;;;;;;15.35;5.50;;;18.20;94.90;;;;;;5092267;28;20039;-67
2024/03/15 06:11:48;;;;;;;21.27;6.97;;;18.20;95.30;;;;;;5092329;28;20213;-68
2024/03/15 06:14:52;;;;;;;22.90;7.25;;;;;;;;;;5091156;28;20055;-67
2024/03/15 06:17:57;;;;;;;20.65;6.55;;;;;;;;;;5092006;28;20032;-68
2024/03/15 06:21:01;;;;;;;16.85;6.78;;;;;;;;;;5092071;28;20511;-68
2024/03/15 06:24:10;;;;;;;18.13;7.03;;;17.80;94.50;;;;;;5092033;28;20028;-68
2024/03/15 06:27:16;;;;;;;19.23;6.97;;;;;;;;;;5091689;28;20518;-68
2024/03/15 06:30:20;;;;;;;14.60;6.63;;;;;;;;;;5091798;28;20051;-68
2024/03/15 06:33:31;;;;;;;17.73;7.32;;;;;;;;;;5091819;28;20502;-68
2024/03/15 06:36:44;;;;;;;20.10;8.52;;;;;;;;;;5090781;28;20056;-68
2024/03/15 06:46:09;;;;;;;32.28;12.48;;;;;;;;;;5091362;28;20441;-67
2024/03/15 06:49:16;;;;;;;24.60;12.07;;;;;;;;;;5091259;28;20039;-67
2024/03/15 06:52:35;;;;;;;22.90;11.73;;;;;;;;;;5091017;28;20062;-67
2024/03/15 06:55:39;;;;;;;30.63;14.05;;;;;;;;;;5091445;28;20055;-67
2024/03/15 06:58:44;;;;;;;25.52;13.73;;;;;;;;;;5091392;28;20051;-67
2024/03/15 07:01:48;;;;;;;16.80;11.55;;;;;;;;;;5090914;28;20403;-68
2024/03/15 07:04:57;;;;;;;21.58;12.00;;;;;;;;;;5091375;28;20039;-68
2024/03/15 07:08:01;;;;;;;26.52;12.27;;;18.10;95.50;;;;;;5090371;28;20047;-68
2024/03/15 07:11:05;;;;;;;21.73;11.82;;;18.20;95.80;;;;;;5089927;28;20059;-68
2024/03/15 07:14:09;;;;;;;30.25;11.52;;;19.50;95.50;;;;;;5090648;28;20051;-68
2024/03/15 07:17:13;;;;;;;24.27;11.40;;;18.70;95.10;;;;;;5091248;28;20052;-67
2024/03/15 07:20:17;;;;;;;21.23;6.55;;;;;;;;;;5091047;28;20399;-69
2024/03/15 07:23:21;;;;;;;8.63;3.35;;;;;;;;;;5089684;28;20044;-69
2024/03/15 07:26:25;;;;;;;26.13;5.05;;;;;;;;;;5090552;28;20048;-68
2024/03/15 07:29:30;;;;;;;13.10;3.15;;;;;;;;;;5090667;28;20032;-67
2024/03/15 07:32:35;;;;;;;9.40;2.45;;;;;;;;;;5090767;28;20074;-67
2024/03/15 07:35:40;;;;;;;15.30;2.63;;;;;;;;;;5090807;28;20345;-69
2024/03/15 07:38:45;;;;;;;12.75;2.65;;;;;;;;;;5090899;28;20415;-67
2024/03/15 07:41:50;;;;;;;16.88;2.50;;;;;;;;;;5089582;28;20518;-68
2024/03/15 07:44:54;;;;;;;15.35;3.17;;;;;;;;;;5090435;28;20385;-68
2024/03/15 07:47:58;;;;;;;22.65;7.55;;;;;;;;;;5090674;28;20043;-68
2024/03/15 07:51:03;;;;;;;9.82;3.10;;;;;;;;;;5095108;28;20054;-68
2024/03/15 07:54:07;;;;;;;17.17;2.95;;;;;;;;;;5093535;28;20040;-68
2024/03/15 07:57:13;;;;;;;14.23;3.05;;;;;;;;;;5094785;28;20059;-69
2024/03/15 08:00:18;;;;;;;12.77;2.47;;;;;;;;;;5094406;28;20036;-69
2024/03/15 08:03:23;;;;;;;10.85;2.38;;;;;;;;;;5094534;28;20040;-69
2024/03/15 08:06:27;;;;;;;10.68;2.28;;;;;;;;;;5094609;28;20047;-68
2024/03/15 08:09:31;;;;;;;16.80;3.53;;;;;;;;;;5094291;28;20676;-69
2024/03/15 08:12:36;;;;;;;12.15;2.92;;;;;;;;;;5094191;28;20395;-68
2024/03/15 08:15:41;;;;;;;15.27;3.05;;;;;;;;;;5094588;28;20036;-68
2024/03/15 08:18:47;;;;;;;16.35;3.00;;;;;;;;;;5094377;28;20048;-68
2024/03/15 08:21:51;;;;;;;9.80;2.60;;;;;;;;;;5093234;28;20048;-68
2024/03/15 08:24:55;;;;;;;13.85;2.85;;;;;;;;;;5094061;28;20035;-68
2024/03/15 08:28:00;;;;;;;27.92;4.43;;;;;;;;;;5094148;28;20045;-69
2024/03/15 08:31:04;;;;;;;22.33;3.97;;;;;;;;;;5093757;28;20055;-68
2024/03/15 08:34:08;;;;;;;13.60;3.20;;;;;;;;;;5093475;28;20032;-68
2024/03/15 08:37:13;;;;;;;10.57;2.67;;;;;;;;;;5093805;28;20043;-68
2024/03/15 08:40:17;;;;;;;21.05;4.05;;;;;;;;;;5093517;28;20036;-68
2024/03/15 08:43:22;;;;;;;7.85;2.20;;;;;;;;;;5093848;28;20059;-68
2024/03/15 08:46:29;;;;;;;13.70;2.83;;;;;;;;;;5093976;28;20028;-68
2024/03/15 08:49:33;;;;;;;12.70;2.42;;;;;;;;;;5093575;28;20399;-68
2024/03/15 08:52:39;;;;;;;13.00;2.60;;;20.00;91.20;;;;;;5093415;28;20107;-69
2024/03/15 08:55:44;;;;;;;12.45;2.28;;;;;;;;;;5093653;28;20050;-69
2024/03/15 08:58:49;;;;;;;18.63;3.33;;;;;;;;;;5093563;28;20036;-69
2024/03/15 09:01:53;;;;;;;6.97;1.85;;;;;;;;;;5092630;28;20067;-68
2024/03/15 09:04:57;;;;;;;7.75;1.73;;;;;;;;;;5093364;28;20032;-68
2024/03/15 09:08:02;;;;;;;8.75;2.60;;;;;;;;;;5093330;28;20036;-68
2024/03/15 09:11:06;;;;;;;7.82;1.92;;;;;;;;;;5093539;28;20055;-68
2024/03/15 09:14:11;;;;;;;9.55;1.90;;;;;;;;;;5093767;28;20472;-68
2024/03/15 09:17:17;;;;;;;16.35;2.55;;;;;;;;;;5093156;28;20032;-68
2024/03/15 09:20:33;;;;;;;7.35;2.00;;;;;;;;;;5092141;28;20043;-68
2024/03/15 09:23:37;;;;;;;5.40;1.77;;;;;;;;;;5093506;28;20040;-68
2024/03/15 09:26:41;;;;;;;7.45;2.85;;;;;;;;;;5093109;28;20044;-68
2024/03/15 09:29:49;;;;;;;16.17;2.88;;;;;;;;;;5093032;28;20044;-68
2024/03/15 09:32:54;;;;;;;17.02;3.03;;;;;;;;;;5093070;28;20483;-68
2024/03/15 09:35:58;;;;;;;11.23;2.80;;;;;;;;;;5091703;28;20479;-70
2024/03/15 09:39:02;;;;;;;10.32;2.72;;;;;;;;;;5092632;28;20046;-69
2024/03/15 09:42:20;;;;;;;14.80;2.95;;;19.90;89.20;;;;;;5092413;28;20599;-69
2024/03/15 09:45:26;;;;;;;10.02;2.47;;;;;;;;;;5092571;28;20039;-68
2024/03/15 09:48:35;;;;;;;6.97;1.88;;;22.60;89.50;;;;;;5092732;28;20032;-68
2024/03/15 09:51:40;;;;;;;7.20;2.28;;;21.10;87.40;;;;;;5092634;28;20047;-68
2024/03/15 09:54:45;;;;;;;10.75;2.58;;;;;;;;;;5092539;28;20051;-68
2024/03/15 09:57:50;;;;;;;22.23;3.85;;;;;;;;;;5092722;28;20387;-68
2024/03/15 10:00:54;;;;;;;9.85;2.20;;;;;;;;;;5092150;28;20044;-68
2024/03/15 10:03:58;;;;;;;4.95;1.77;;;;;;;;;;5092520;28;20040;-69
2024/03/15 10:07:05;;;;;;;12.63;2.83;;;;;;;;;;5092169;28;20036;-68
2024/03/15 10:10:11;;;;;;;14.82;2.83;;;20.90;90.90;;;;;;5092012;28;20039;-68
2024/03/15 10:13:17;;;;;;;20.95;2.85;;;;;;;;;;5091996;28;20047;-68
2024/03/15 10:16:21;;;;;;;13.13;2.30;;;;;;;;;;5092238;28;20040;-68
2024/03/15 10:19:25;;;;;;;9.07;2.35;;;;;;;;;;5091640;28;20046;-69
2024/03/15 10:22:29;;;;;;;9.25;2.28;;;;;;;;;;5091709;28;20048;-71
2024/03/15 10:25:34;;;;;;;9.98;2.20;;;;;;;;;;5091574;28;20605;-68
2024/03/15 10:28:38;;;;;;;10.82;2.03;;;;;;;;;;5091964;28;20044;-68
2024/03/15 10:31:43;;;;;;;10.20;2.17;;;;;;;;;;5091413;28;20050;-69
2024/03/15 10:34:47;;;;;;;10.88;2.55;;;20.60;88.90;;;;;;5091512;28;20468;-69
2024/03/15 10:37:52;;;;;;;14.50;3.15;;;;;;;;;;5091635;28;20051;-68
2024/03/15 10:40:59;;;;;;;16.95;3.30;;;;;;;;;;5091590;28;20044;-68
2024/03/15 10:44:04;;;;;;;9.60;2.42;;;;;;;;;;5091768;28;20040;-68
2024/03/15 10:47:12;;;;;;;8.52;1.98;;;22.20;89.10;;;;;;5091810;28;20032;-67
2024/03/15 10:50:18;;;;;;;10.15;2.70;;;20.80;89.10;;;;;;5091204;28;20047;-68
2024/03/15 10:53:24;;;;;;;13.40;2.47;;;;;;;;;;5091506;28;20426;-68
2024/03/15 10:56:28;;;;;;;18.77;3.08;;;;;;;;;;5091276;28;20036;-68
2024/03/15 10:59:32;;;;;;;13.38;2.50;;;;;;;;;;5090406;28;20147;-69
2024/03/15 11:02:36;;;;;;;15.38;4.00;;;;;;;;;;5090996;28;20050;-70
2024/03/15 11:05:41;;;;;;;7.63;2.65;;;;;;;;;;5091478;28;20040;-70
2024/03/15 11:08:46;;;;;;;9.45;2.50;;;;;;;;;;5091178;28;20055;-69
2024/03/15 11:12:03;;;;;;;13.85;2.67;;;19.40;90.60;;;;;;5091380;28;20039;-70
2024/03/15 11:15:17;;;;;;;9.55;2.28;;;20.00;90.80;;;;;;5091092;28;20515;-69
2024/03/15 11:18:22;;;;;;;18.55;3.75;;;;;;;;;;5090879;28;20035;-68
2024/03/15 11:21:26;;;;;;;9.45;2.42;;;;;;;;;;5089491;28;20058;-68
2024/03/15 11:24:41;;;;;;;1279.50;135.00;;;20.10;91.00;;;;;;5090389;28;20036;-72
2024/03/15 11:27:58;;;;;;;62.38;8.10;;;19.90;90.90;;;;;;5090908;28;20070;-72
2024/03/15 11:31:03;;;;;;;32.45;4.22;;;;;;;;;;5090934;28;20043;-74
2024/03/15 11:34:07;;;;;;;10.13;2.65;;;;;;;;;;5091047;28;20044;-72
2024/03/15 11:37:13;;;;;;;10.38;2.40;;;;;;;;;;5090693;28;20040;-72
2024/03/15 11:40:18;;;;;;;17.35;2.60;;;;;;;;;;5090860;28;20039;-72
2024/03/15 11:43:22;;;;;;;11.55;2.45;;;;;;;;;;5090637;28;20541;-73
2024/03/15 11:46:27;;;;;;;11.98;2.58;;;;;;;;;;5090948;28;20345;-74
2024/03/15 11:49:32;;;;;;;11.45;2.47;;;;;;;;;;5090862;28;20040;-74
2024/03/15 11:52:36;;;;;;;9.20;2.60;;;;;;;;;;5089743;28;20073;-73
2024/03/15 11:55:40;;;;;;;8.25;2.20;;;;;;;;;;5092557;28;20040;-81
2024/03/15 11:58:45;;;;;;;11.25;2.47;;;21.10;92.10;;;;;;5078326;28;20028;-83
2024/03/15 12:01:49;;;;;;;15.43;2.63;;;;;;;;;;5090577;28;20055;-76
2024/03/15 12:04:54;;;;;;;9.05;2.20;;;20.20;92.00;;;;;;5091022;28;20045;-76
2024/03/15 12:07:58;;;;;;;8.68;2.38;;;;;;;;;;5090367;28;20059;-73
2024/03/15 12:11:03;;;;;;;14.10;3.08;;;;;;;;;;5090383;28;20040;-73
2024/03/15 12:14:12;;;;;;;13.65;3.50;;;21.10;90.90;;;;;;5090307;28;20040;-73
2024/03/15 12:17:16;;;;;;;9.55;1.95;;;;;;;;;;5090693;28;20601;-74
2024/03/15 12:20:22;;;;;;;6.80;2.00;;;;;;;;;;5090309;28;20036;-76
2024/03/15 12:23:26;;;;;;;6.13;2.13;;;;;;;;;;5090369;28;20040;-74
2024/03/15 12:26:31;;;;;;;6.47;2.00;;;;;;;;;;5090173;28;20388;-75
2024/03/15 12:29:35;;;;;;;10.60;2.25;;;;;;;;;;5090245;28;20040;-74
2024/03/15 12:32:39;;;;;;;9.32;2.30;;;;;;;;;;5090338;28;20397;-73
2024/03/15 12:35:46;;;;;;;7.72;2.85;;;20.20;90.90;;;;;;5090899;28;20380;-74
2024/03/15 12:38:50;;;;;;;9.57;2.42;;;;;;;;;;5094166;28;20051;-74
2024/03/15 12:41:55;;;;;;;9.95;2.17;;;;;;;;;;5081213;28;20052;-74
2024/03/15 12:44:59;;;;;;;19.38;3.03;;;;;;;;;;5094016;28;20374;-74
2024/03/15 12:48:04;;;;;;;8.52;2.20;;;;;;;;;;5093897;28;20040;-73
2024/03/15 12:51:09;;;;;;;8.70;2.58;;;19.90;91.00;;;;;;5093063;28;20032;-75
2024/03/15 12:54:14;;;;;;;12.90;2.85;;;;;;;;;;5092880;28;20054;-75
2024/03/15 12:57:18;;;;;;;10.98;2.40;;;;;;;;;;5093698;28;20028;-75
2024/03/15 13:00:28;;;;;;;9.90;2.38;;;;;;;;;;5093893;28;20047;-76
2024/03/15 13:03:33;;;;;;;27.08;3.08;;;;;;;;;;5092915;28;20048;-75
2024/03/15 13:06:37;;;;;;;10.93;2.58;;;;;;;;;;5093536;28;20036;-75
2024/03/15 13:09:41;;;;;;;7.07;1.92;;;;;;;;;;5093592;28;20047;-75
2024/03/15 13:12:50;;;;;;;10.25;2.10;;;20.60;91.40;;;;;;5093538;28;20032;-75
2024/03/15 13:15:55;;;;;;;12.25;2.50;;;;;;;;;;5093198;28;20147;-76
2024/03/15 13:18:59;;;;;;;11.15;2.40;;;;;;;;;;5093402;28;20526;-75
2024/03/15 13:22:03;;;;;;;9.88;2.65;;;20.50;91.70;;;;;;5091448;28;20048;-75
2024/03/15 13:25:12;;;;;;;8.73;1.85;;;20.50;91.50;;;;;;5092574;28;20047;-75
2024/03/15 13:28:16;;;;;;;13.52;2.85;;;;;;;;;;5092327;28;20055;-76
2024/03/15 13:31:21;;;;;;;12.13;2.15;;;;;;;;;;5093314;28;20036;-76
2024/03/15 13:34:25;;;;;;;14.85;3.35;;;;;;;;;;5093389;28;20142;-75
2024/03/15 13:37:30;;;;;;;11.65;2.10;;;;;;;;;;5092321;28;20047;-76
2024/03/15 13:40:34;;;;;;;31.25;3.97;;;;;;;;;;5093040;28;20040;-72
2024/03/15 13:43:41;;;;;;;7.95;1.90;;;;;;;;;;5092780;28;20044;-73
2024/03/15 13:46:46;;;;;;;14.02;3.25;;;;;;;;;;5092543;28;20040;-68
2024/03/15 13:49:50;;;;;;;7.40;2.45;;;;;;;;;;5092428;28;20055;-70
2024/03/15 13:52:54;;;;;;;10.38;2.92;;;;;;;;;;5092435;28;20040;-69
2024/03/15 13:55:59;;;;;;;11.13;2.15;;;;;;;;;;5092685;28;20036;-68
2024/03/15 13:59:07;;;;;;;25.25;2.70;;;;;;;;;;5092462;28;20048;-68
2024/03/15 14:02:11;;;;;;;7.53;2.33;;;;;;;;;;5092264;28;20036;-68
2024/03/15 14:05:15;;;;;;;14.55;3.20;;;;;;;;;;5092417;28;20460;-66
2024/03/15 14:08:20;;;;;;;8.52;1.80;;;;;;;;;;5092509;28;20110;-68
2024/03/15 14:11:24;;;;;;;13.60;4.18;;;;;;;;;;5091410;28;20040;-68
2024/03/15 14:14:32;;;;;;;5.72;1.85;;;;;;;;;;5092661;28;20051;-67
2024/03/15 14:17:36;;;;;;;14.35;2.97;;;;;;;;;;5093026;28;20036;-67
2024/03/15 14:20:43;;;;;;;7.03;2.25;;;;;;;;;;5091911;28;20047;-65
2024/03/15 14:23:49;;;;;;;21.13;3.50;;;;;;;;;;5091882;28;20044;-68
2024/03/15 14:26:54;;;;;;;32.15;5.10;;;;;;;;;;5091418;28;20047;-66
2024/03/15 14:29:59;;;;;;;12.55;2.10;;;;;;;;;;5092166;28;20063;-75
2024/03/15 14:33:06;;;;;;;7.65;2.22;;;;;;;;;;5091941;28;20047;-74
2024/03/15 14:36:10;;;;;;;23.67;3.72;;;;;;;;;;5091819;28;20044;-72
2024/03/15 14:39:14;;;;;;;10.80;2.13;;;;;;;;;;5091241;28;20043;-71
2024/03/15 14:42:19;;;;;;;10.73;2.08;;;;;;;;;;5088517;28;20051;-72
2024/03/15 14:45:30;;;;;;;16.30;3.38;;;18.80;91.90;;;;;;5090591;28;20032;-72
2024/03/15 14:48:36;;;;;;;9.80;2.30;;;;;;;;;;5090700;28;20047;-72
2024/03/15 14:51:40;;;;;;;8.95;1.85;;;;;;;;;;5090617;28;20028;-72
2024/03/15 14:54:45;;;;;;;13.07;2.72;;;;;;;;;;5090157;28;20036;-72
2024/03/15 14:57:50;;;;;;;11.00;2.13;;;;;;;;;;5090188;28;20052;-72
2024/03/15 15:00:54;;;;;;;5.93;2.00;;;;;;;;;;5091279;28;20062;-72
2024/03/15 15:03:59;;;;;;;4.57;1.90;;;;;;;;;;5091396;28;20385;-72
2024/03/15 15:07:04;;;;;;;11.48;2.00;;;;;;;;;;5091292;28;20040;-71
2024/03/15 15:10:10;;;;;;;8.65;2.13;;;;;;;;;;5091143;28;20361;-71
2024/03/15 15:13:14;;;;;;;7.90;1.83;;;;;;;;;;5089942;28;20036;-72
2024/03/15 15:16:18;;;;;;;6.40;1.63;;;;;;;;;;5090893;28;20051;-72
2024/03/15 15:19:23;;;;;;;21.08;4.05;;;;;;;;;;5090819;28;20036;-69
2024/03/15 15:22:29;;;;;;;14.38;2.28;;;;;;;;;;5090804;28;20047;-68
2024/03/15 15:25:33;;;;;;;8.65;1.80;;;;;;;;;;5090526;28;20051;-69
2024/03/15 15:28:40;;;;;;;12.55;2.08;;;;;;;;;;5091157;28;20047;-69
2024/03/15 15:31:45;;;;;;;16.42;2.42;;;;;;;;;;5078106;28;20051;-71
2024/03/15 15:34:50;;;;;;;8.85;2.63;;;;;;;;;;5090720;28;20044;-70
2024/03/15 15:37:54;;;;;;;20.08;3.25;;;;;;;;;;5090753;28;20040;-70
2024/03/15 15:40:59;;;;;;;11.65;2.03;;;;;;;;;;5090650;28;20048;-71
2024/03/15 15:44:04;;;;;;;11.50;2.22;;;;;;;;;;5090715;28;20040;-69
2024/03/15 15:47:08;;;;;;;23.25;3.10;;;;;;;;;;5090717;28;20032;-70
2024/03/15 15:50:19;;;;;;;12.98;2.42;;;;;;;;;;5090449;28;20118;-69
2024/03/15 15:53:24;;;;;;;8.23;1.52;;;;;;;;;;5089741;28;20472;-69
2024/03/15 15:56:28;;;;;;;6.65;1.65;;;;;;;;;;5090513;28;20048;-69
2024/03/15 15:59:33;;;;;;;12.98;2.45;;;;;;;;;;5090721;28;20036;-69
2024/03/15 16:02:40;;;;;;;13.13;2.60;;;17.80;93.90;;;;;;5089316;28;20055;-69
2024/03/15 16:05:44;;;;;;;7.43;2.30;;;;;;;;;;5089839;28;20047;-70
2024/03/15 16:08:48;;;;;;;10.65;1.95;;;;;;;;;;5090372;28;20040;-69
2024/03/15 16:11:53;;;;;;;15.38;2.88;;;;;;;;;;5081959;28;20044;-70
2024/03/15 16:14:57;;;;;;;16.15;2.72;;;;;;;;;;5094061;28;20399;-70
2024/03/15 16:18:03;;;;;;;12.60;4.28;;;;;;;;;;5094106;28;20032;-68
2024/03/15 16:21:07;;;;;;;9.73;3.60;;;;;;;;;;5093947;28;20044;-68
2024/03/15 16:24:11;;;;;;;12.88;3.13;;;;;;;;;;5094243;28;20048;-68
2024/03/15 16:27:15;;;;;;;19.17;3.97;;;;;;;;;;5094093;28;20044;-69
2024/03/15 16:30:21;;;;;;;11.85;3.90;;;;;;;;;;5093850;28;20399;-70
2024/03/15 16:33:26;;;;;;;10.57;3.03;;;;;;;;;;5093500;28;20058;-69
2024/03/15 16:36:30;;;;;;;15.65;3.05;;;;;;;;;;5093939;28;20043;-67
2024/03/15 16:39:35;;;;;;;24.98;3.53;;;;;;;;;;5093556;28;20048;-68
2024/03/15 16:42:39;;;;;;;9.50;3.15;;;;;;;;;;5093791;28;20048;-67
2024/03/15 16:45:44;;;;;;;18.77;4.10;;;17.30;94.40;;;;;;5093742;28;20612;-69
2024/03/15 16:48:49;;;;;;;16.45;3.50;;;;;;;;;;5093785;28;20502;-68
2024/03/15 16:51:53;;;;;;;14.57;4.28;;;;;;;;;;5093503;28;20631;-68
2024/03/15 16:54:58;;;;;;;20.35;3.97;;;;;;;;;;5093416;28;20053;-68
2024/03/15 16:58:03;;;;;;;14.27;3.92;;;;;;;;;;5093209;28;20395;-68
2024/03/15 17:01:08;;;;;;;21.85;5.05;;;;;;;;;;5093580;28;20036;-68
2024/03/15 17:04:13;;;;;;;16.63;5.00;;;;;;;;;;5093699;28;20077;-69
2024/03/15 17:07:18;;;;;;;12.75;5.03;;;;;;;;;;5093555;28;20039;-67
2024/03/15 17:10:23;;;;;;;18.75;7.15;;;;;;;;;;5093353;28;20043;-68
2024/03/15 17:13:27;;;;;;;20.13;5.15;;;;;;;;;;5093290;28;20044;-68
2024/03/15 17:16:31;;;;;;;18.25;6.20;;;;;;;;;;5092952;28;20040;-68
2024/03/15 17:19:38;;;;;;;14.43;4.78;;;;;;;;;;5093076;28;20040;-69
2024/03/15 17:22:43;;;;;;;28.58;7.65;;;;;;;;;;5092114;28;20048;-68
2024/03/15 17:25:53;;;;;;;18.92;6.05;;;16.80;95.50;;;;;;5093003;28;20063;-67
2024/03/15 17:28:57;;;;;;;19.05;5.97;;;;;;;;;;5093233;28;20051;-68
2024/03/15 17:32:03;;;;;;;25.58;6.78;;;;;;;;;;5092812;28;20498;-68
2024/03/15 17:35:08;;;;;;;18.90;6.82;;;;;;;;;;5092979;28;20055;-71